createdAt,value
2023-05-21T00:01:48.863Z,18.60
2023-05-21T00:04:15.393Z,18.60
2023-05-21T00:06:41.918Z,18.60
2023-05-21T00:09:08.454Z,18.60
2023-05-21T00:11:35.033Z,18.60
2023-05-21T00:14:01.562Z,18.60
2023-05-21T00:16:28.173Z,18.60
2023-05-21T00:18:54.861Z,18.60
2023-05-21T00:21:21.428Z,18.60
2023-05-21T00:23:47.976Z,18.50
2023-05-21T00:26:14.498Z,18.60
2023-05-21T00:28:41.022Z,18.60
2023-05-21T00:31:07.525Z,18.60
2023-05-21T00:33:34.057Z,18.60
2023-05-21T00:36:00.992Z,18.60
2023-05-21T00:38:27.552Z,18.60
2023-05-21T00:40:54.084Z,18.60
2023-05-21T00:43:20.624Z,18.50
2023-05-21T00:45:47.163Z,18.60
2023-05-21T00:48:13.734Z,18.50
2023-05-21T00:50:40.260Z,18.60
2023-05-21T00:53:06.782Z,18.50
2023-05-21T00:55:33.394Z,18.50
2023-05-21T00:57:59.992Z,18.60
2023-05-21T01:00:26.571Z,18.50
2023-05-21T01:02:53.150Z,18.50
2023-05-21T01:05:19.745Z,18.50
2023-05-21T01:07:46.273Z,18.50
2023-05-21T01:10:12.837Z,18.40
2023-05-21T01:12:39.384Z,18.50
2023-05-21T01:15:05.951Z,18.50
2023-05-21T01:17:32.524Z,18.50
2023-05-21T01:19:59.150Z,18.40
2023-05-21T01:22:25.687Z,18.50
2023-05-21T01:24:52.222Z,18.50
2023-05-21T01:27:18.749Z,18.50
2023-05-21T01:29:45.272Z,18.50
2023-05-21T01:32:11.791Z,18.50
2023-05-21T01:34:38.334Z,18.50
2023-05-21T01:37:05.346Z,18.60
2023-05-21T01:39:31.883Z,18.50
2023-05-21T01:41:58.401Z,18.50
2023-05-21T01:44:24.963Z,18.50
2023-05-21T01:46:51.559Z,18.50
2023-05-21T01:49:18.175Z,18.50
2023-05-21T01:51:44.688Z,18.40
2023-05-21T01:54:12.970Z,18.50
2023-05-21T01:56:49.126Z,18.50
2023-05-21T01:59:15.670Z,18.50
2023-05-21T02:01:42.254Z,18.50
2023-05-21T02:04:08.870Z,18.40
2023-05-21T02:06:35.430Z,18.40
2023-05-21T02:09:01.971Z,18.40
2023-05-21T02:11:28.532Z,18.50
2023-05-21T02:13:55.077Z,18.40
2023-05-21T02:16:21.650Z,18.40
2023-05-21T02:18:48.268Z,18.40
2023-05-21T02:21:14.837Z,18.50
2023-05-21T02:23:41.379Z,18.50
2023-05-21T02:26:07.916Z,18.40
2023-05-21T02:28:34.451Z,18.40
2023-05-21T02:31:00.985Z,18.40
2023-05-21T02:33:27.509Z,18.50
2023-05-21T02:35:54.065Z,18.50
2023-05-21T02:38:20.669Z,18.50
2023-05-21T02:40:47.190Z,18.50
2023-05-21T02:43:15.920Z,18.40
2023-05-21T02:45:42.748Z,18.40
2023-05-21T02:48:09.335Z,18.40
2023-05-21T02:50:35.864Z,18.40
2023-05-21T02:53:02.384Z,18.40
2023-05-21T02:55:28.917Z,18.40
2023-05-21T02:57:55.468Z,18.40
2023-05-21T03:00:22.001Z,18.40
2023-05-21T03:02:48.572Z,18.40
2023-05-21T03:05:15.187Z,18.40
2023-05-21T03:07:41.702Z,18.40
2023-05-21T03:10:08.214Z,18.40
2023-05-21T03:12:34.733Z,18.40
2023-05-21T03:15:01.263Z,18.40
2023-05-21T03:17:27.847Z,18.30
2023-05-21T03:19:54.391Z,18.40
2023-05-21T03:22:20.926Z,18.40
2023-05-21T03:24:47.476Z,18.40
2023-05-21T03:27:14.019Z,18.40
2023-05-21T03:29:40.531Z,18.40
2023-05-21T03:32:07.115Z,18.40
2023-05-21T03:34:33.664Z,18.40
2023-05-21T03:37:00.216Z,18.40
2023-05-21T03:39:26.747Z,18.40
2023-05-21T03:41:53.301Z,18.40
2023-05-21T03:44:19.832Z,18.40
2023-05-21T03:46:46.360Z,18.40
2023-05-21T03:49:12.875Z,18.40
2023-05-21T03:51:39.406Z,18.40
2023-05-21T03:54:05.932Z,18.30
2023-05-21T03:56:32.478Z,18.40
2023-05-21T03:58:59.010Z,18.40
2023-05-21T04:01:25.550Z,18.40
2023-05-21T04:03:52.386Z,18.40
2023-05-21T04:06:19.225Z,18.40
2023-05-21T04:08:45.735Z,18.40
2023-05-21T04:11:13.088Z,18.40
2023-05-21T04:13:39.610Z,18.40
2023-05-21T04:16:06.166Z,18.30
2023-05-21T04:18:32.745Z,18.40
2023-05-21T04:20:59.281Z,18.30
2023-05-21T04:23:25.838Z,18.40
2023-05-21T04:25:52.389Z,18.30
2023-05-21T04:28:19.074Z,18.30
2023-05-21T04:30:45.603Z,18.40
2023-05-21T04:33:12.102Z,18.40
2023-05-21T04:35:38.661Z,18.40
2023-05-21T04:38:05.366Z,18.40
2023-05-21T04:40:31.899Z,18.30
2023-05-21T04:42:58.439Z,18.40
2023-05-21T04:45:24.960Z,18.40
2023-05-21T04:47:51.736Z,18.30
2023-05-21T04:50:19.080Z,18.40
2023-05-21T04:52:45.627Z,18.30
2023-05-21T04:55:12.168Z,18.30
2023-05-21T04:57:38.737Z,18.40
2023-05-21T05:00:05.261Z,18.40
2023-05-21T05:02:31.836Z,18.40
2023-05-21T05:04:58.374Z,18.40
2023-05-21T05:07:24.881Z,18.40
2023-05-21T05:09:51.404Z,18.30
2023-05-21T05:12:17.924Z,18.30
2023-05-21T05:14:44.442Z,18.40
2023-05-21T05:17:13.132Z,18.30
2023-05-21T05:19:39.668Z,18.40
2023-05-21T05:22:06.211Z,18.40
2023-05-21T05:24:32.751Z,18.40
2023-05-21T05:26:59.309Z,18.40
2023-05-21T05:29:25.873Z,18.40
2023-05-21T05:31:52.397Z,18.40
2023-05-21T05:34:18.946Z,18.40
2023-05-21T05:36:45.471Z,18.40
2023-05-21T05:39:12.106Z,18.40
2023-05-21T05:41:38.634Z,18.40
2023-05-21T05:44:05.190Z,18.40
2023-05-21T05:46:31.753Z,18.40
2023-05-21T05:48:58.378Z,18.40
2023-05-21T05:51:24.940Z,18.40
2023-05-21T05:53:51.505Z,18.40
2023-05-21T05:56:18.038Z,18.40
2023-05-21T05:58:44.570Z,18.40
2023-05-21T06:01:11.093Z,18.40
2023-05-21T06:03:37.732Z,18.40
2023-05-21T06:06:04.345Z,18.40
2023-05-21T06:08:30.897Z,18.40
2023-05-21T06:10:57.402Z,18.40
2023-05-21T06:13:23.922Z,18.40
2023-05-21T06:15:50.499Z,18.40
2023-05-21T06:18:17.051Z,18.40
2023-05-21T06:20:43.570Z,18.30
2023-05-21T06:23:10.100Z,18.40
2023-05-21T06:25:36.909Z,18.40
2023-05-21T06:28:03.595Z,18.50
2023-05-21T06:30:30.111Z,18.40
2023-05-21T06:32:56.708Z,18.40
2023-05-21T06:35:23.275Z,18.40
2023-05-21T06:37:49.805Z,18.40
2023-05-21T06:40:16.362Z,18.40
2023-05-21T06:42:42.874Z,18.40
2023-05-21T06:45:09.421Z,18.40
2023-05-21T06:47:37.265Z,18.50
2023-05-21T06:50:03.844Z,18.40
2023-05-21T06:52:30.363Z,18.40
2023-05-21T06:54:56.972Z,18.40
2023-05-21T06:57:23.518Z,18.40
2023-05-21T06:59:50.048Z,18.40
2023-05-21T07:02:16.721Z,18.50
2023-05-21T07:04:43.359Z,18.50
2023-05-21T07:07:09.906Z,18.50
2023-05-21T07:09:36.420Z,18.50
2023-05-21T07:12:02.951Z,18.50
2023-05-21T07:14:29.485Z,18.50
2023-05-21T07:16:56.043Z,18.40
2023-05-21T07:19:22.722Z,18.50
2023-05-21T07:21:49.301Z,18.50
2023-05-21T07:24:15.835Z,18.50
2023-05-21T07:26:42.354Z,18.50
2023-05-21T07:29:08.927Z,18.50
2023-05-21T07:31:35.541Z,18.50
2023-05-21T07:34:07.260Z,18.50
2023-05-21T07:36:37.261Z,18.50
2023-05-21T07:39:03.783Z,18.60
2023-05-21T07:41:30.333Z,18.50
2023-05-21T07:43:56.861Z,18.60
2023-05-21T07:46:23.430Z,18.60
2023-05-21T07:48:49.964Z,18.60
2023-05-21T07:51:16.505Z,18.60
2023-05-21T07:53:43.053Z,18.60
2023-05-21T07:56:09.584Z,18.60
2023-05-21T07:58:36.113Z,18.60
2023-05-21T08:01:02.678Z,18.60
2023-05-21T08:03:29.261Z,18.50
2023-05-21T08:06:01.282Z,18.60
2023-05-21T08:08:27.804Z,18.60
2023-05-21T08:10:54.419Z,18.60
2023-05-21T08:13:21.068Z,18.60
2023-05-21T08:15:47.642Z,18.60
2023-05-21T08:18:19.354Z,18.60
2023-05-21T08:20:45.872Z,18.60
2023-05-21T08:23:12.401Z,18.60
2023-05-21T08:25:39.166Z,18.60
2023-05-21T08:28:05.820Z,18.60
2023-05-21T08:30:32.367Z,18.70
2023-05-21T08:32:58.952Z,18.60
2023-05-21T08:35:25.483Z,18.60
2023-05-21T08:37:51.986Z,18.60
2023-05-21T08:40:18.527Z,18.60
2023-05-21T08:42:45.080Z,18.60
2023-05-21T08:45:11.623Z,18.60
2023-05-21T08:47:38.209Z,18.60
2023-05-21T08:50:04.764Z,18.70
2023-05-21T08:52:31.327Z,18.70
2023-05-21T08:54:57.855Z,18.70
2023-05-21T08:57:24.416Z,18.70
2023-05-21T08:59:50.938Z,18.70
2023-05-21T09:02:17.475Z,18.70
2023-05-21T09:04:44.096Z,18.70
2023-05-21T09:07:10.630Z,18.70
2023-05-21T09:09:37.156Z,18.70
2023-05-21T09:12:03.709Z,18.70
2023-05-21T09:14:30.210Z,18.80
2023-05-21T09:16:56.740Z,18.70
2023-05-21T09:19:23.368Z,18.70
2023-05-21T09:21:49.896Z,18.70
2023-05-21T09:24:16.407Z,18.70
2023-05-21T09:26:42.935Z,18.70
2023-05-21T09:29:09.459Z,18.80
2023-05-21T09:31:36.020Z,18.80
2023-05-21T09:34:02.560Z,18.80
2023-05-21T09:36:31.382Z,18.80
2023-05-21T09:38:57.943Z,18.80
2023-05-21T09:41:24.478Z,18.80
2023-05-21T09:43:51.007Z,18.80
2023-05-21T09:46:17.553Z,18.80
2023-05-21T09:48:44.142Z,18.80
2023-05-21T09:51:10.671Z,18.80
2023-05-21T09:53:37.187Z,18.80
2023-05-21T09:56:03.783Z,18.80
2023-05-21T09:58:30.329Z,18.70
2023-05-21T10:00:56.857Z,18.80
2023-05-21T10:03:23.417Z,18.80
2023-05-21T10:05:49.964Z,18.80
2023-05-21T10:08:16.487Z,18.80
2023-05-21T10:10:43.015Z,18.80
2023-05-21T10:13:09.548Z,18.90
2023-05-21T10:15:36.075Z,18.80
2023-05-21T10:18:02.672Z,18.90
2023-05-21T10:20:29.334Z,18.90
2023-05-21T10:22:55.881Z,18.90
2023-05-21T10:25:22.392Z,18.90
2023-05-21T10:27:48.913Z,18.90
2023-05-21T10:30:15.443Z,18.90
2023-05-21T10:32:42.105Z,18.90
2023-05-21T10:35:08.796Z,18.90
2023-05-21T10:37:35.339Z,18.90
2023-05-21T10:40:01.850Z,18.90
2023-05-21T10:42:28.366Z,18.90
2023-05-21T10:44:54.882Z,18.90
2023-05-21T10:47:21.419Z,18.90
2023-05-21T10:49:47.957Z,18.90
2023-05-21T10:52:14.503Z,19.00
2023-05-21T10:54:41.043Z,18.90
2023-05-21T10:57:07.592Z,18.90
2023-05-21T10:59:34.164Z,18.90
2023-05-21T11:02:00.761Z,19.00
2023-05-21T11:04:27.319Z,19.00
2023-05-21T11:06:53.835Z,19.00
2023-05-21T11:09:20.466Z,18.90
2023-05-21T11:11:46.996Z,18.90
2023-05-21T11:14:13.542Z,19.00
2023-05-21T11:16:40.175Z,19.00
2023-05-21T11:19:06.779Z,19.00
2023-05-21T11:21:33.278Z,19.00
2023-05-21T11:23:59.800Z,19.00
2023-05-21T11:26:26.381Z,19.00
2023-05-21T11:28:52.933Z,19.00
2023-05-21T11:31:19.519Z,19.00
2023-05-21T11:33:46.085Z,19.00
2023-05-21T11:36:12.602Z,18.90
2023-05-21T11:38:39.117Z,19.00
2023-05-21T11:41:05.641Z,19.00
2023-05-21T11:43:32.196Z,19.00
2023-05-21T11:45:58.733Z,19.10
2023-05-21T11:48:27.290Z,19.10
2023-05-21T11:50:54.577Z,19.10
2023-05-21T11:53:21.136Z,19.10
2023-05-21T11:55:47.676Z,19.10
2023-05-21T11:58:14.207Z,19.10
2023-05-21T12:00:40.714Z,19.10
2023-05-21T12:03:07.274Z,19.10
2023-05-21T12:05:33.913Z,19.10
2023-05-21T12:08:00.465Z,19.10
2023-05-21T12:10:26.990Z,19.10
2023-05-21T12:12:57.052Z,19.10
2023-05-21T12:15:23.943Z,19.10
2023-05-21T12:17:50.529Z,19.10
2023-05-21T12:20:17.110Z,19.10
2023-05-21T12:22:43.665Z,19.20
2023-05-21T12:25:10.189Z,19.20
2023-05-21T12:27:36.740Z,19.20
2023-05-21T12:30:03.264Z,19.20
2023-05-21T12:32:29.837Z,19.20
2023-05-21T12:34:56.364Z,19.20
2023-05-21T12:37:22.907Z,19.20
2023-05-21T12:39:49.450Z,19.10
2023-05-21T12:42:19.629Z,19.20
2023-05-21T12:44:46.149Z,19.20
2023-05-21T12:47:12.671Z,19.20
2023-05-21T12:49:39.204Z,19.20
2023-05-21T12:52:05.728Z,19.20
2023-05-21T12:54:32.240Z,19.30
2023-05-21T12:56:58.757Z,19.30
2023-05-21T12:59:25.296Z,19.30
2023-05-21T13:01:51.878Z,19.30
2023-05-21T13:04:18.473Z,19.30
2023-05-21T13:06:45.009Z,19.30
2023-05-21T13:09:11.513Z,19.30
2023-05-21T13:11:38.028Z,19.30
2023-05-21T13:14:04.559Z,19.30
2023-05-21T13:16:31.297Z,19.30
2023-05-21T13:18:57.926Z,19.30
2023-05-21T13:21:24.455Z,19.40
2023-05-21T13:23:50.987Z,19.40
2023-05-21T13:26:17.490Z,19.30
2023-05-21T13:28:44.018Z,19.40
2023-05-21T13:31:10.544Z,19.40
2023-05-21T13:33:37.168Z,19.40
2023-05-21T13:36:03.782Z,19.40
2023-05-21T13:38:30.326Z,19.40
2023-05-21T13:40:56.868Z,19.40
2023-05-21T13:43:23.390Z,19.40
2023-05-21T13:45:50.071Z,19.40
2023-05-21T13:48:16.643Z,19.40
2023-05-21T13:50:43.568Z,19.40
2023-05-21T13:53:10.077Z,19.50
2023-05-21T13:55:36.615Z,19.50
2023-05-21T13:58:03.121Z,19.40
2023-05-21T14:00:29.689Z,19.50
2023-05-21T14:02:56.391Z,19.50
2023-05-21T14:05:23.001Z,19.50
2023-05-21T14:07:49.529Z,19.60
2023-05-21T14:10:16.051Z,19.50
2023-05-21T14:12:42.577Z,19.40
2023-05-21T14:15:09.118Z,19.50
2023-05-21T14:17:35.866Z,19.50
2023-05-21T14:20:02.500Z,19.50
2023-05-21T14:22:29.040Z,19.50
2023-05-21T14:24:55.586Z,19.60
2023-05-21T14:27:22.152Z,19.60
2023-05-21T14:29:48.659Z,19.60
2023-05-21T14:32:15.217Z,19.60
2023-05-21T14:34:41.799Z,19.60
2023-05-21T14:37:08.342Z,19.70
2023-05-21T14:39:34.867Z,19.70
2023-05-21T14:42:01.434Z,19.70
2023-05-21T14:44:27.963Z,19.60
2023-05-21T14:46:54.480Z,19.70
2023-05-21T14:49:31.819Z,19.80
2023-05-21T14:51:58.340Z,19.80
2023-05-21T14:54:24.860Z,19.80
2023-05-21T14:56:55.677Z,19.80
2023-05-21T14:59:22.253Z,19.80
2023-05-21T15:01:48.857Z,19.80
2023-05-21T15:04:15.437Z,19.90
2023-05-21T15:06:42.022Z,19.90
2023-05-21T15:09:08.592Z,19.80
2023-05-21T15:11:35.113Z,19.90
2023-05-21T15:14:01.667Z,19.90
2023-05-21T15:16:28.235Z,19.90
2023-05-21T15:18:54.864Z,20.00
2023-05-21T15:21:21.437Z,19.90
2023-05-21T15:23:47.980Z,20.00
2023-05-21T15:26:14.513Z,20.00
2023-05-21T15:28:41.046Z,20.00
2023-05-21T15:31:07.562Z,20.00
2023-05-21T15:33:34.096Z,20.00
2023-05-21T15:36:00.680Z,20.00
2023-05-21T15:38:27.230Z,20.00
2023-05-21T15:40:54.067Z,20.00
2023-05-21T15:43:20.615Z,20.00
2023-05-21T15:45:47.133Z,20.00
2023-05-21T15:48:13.712Z,20.00
2023-05-21T15:50:40.272Z,20.00
2023-05-21T15:53:06.784Z,20.00
2023-05-21T15:55:33.324Z,20.00
2023-05-21T15:58:02.037Z,20.00
2023-05-21T16:00:28.996Z,20.00
2023-05-21T16:02:55.561Z,20.00
2023-05-21T16:05:22.150Z,20.10
2023-05-21T16:07:48.673Z,20.10
2023-05-21T16:10:15.198Z,20.10
2023-05-21T16:12:41.699Z,20.10
2023-05-21T16:15:08.216Z,20.10
2023-05-21T16:17:34.756Z,20.10
2023-05-21T16:20:01.289Z,20.10
2023-05-21T16:22:27.831Z,20.20
2023-05-21T16:24:54.384Z,20.10
2023-05-21T16:27:20.921Z,20.20
2023-05-21T16:29:47.465Z,20.10
2023-05-21T16:32:14.309Z,20.20
2023-05-21T16:34:40.948Z,20.10
2023-05-21T16:37:07.667Z,20.10
2023-05-21T16:39:34.195Z,20.20
2023-05-21T16:42:00.715Z,20.20
2023-05-21T16:44:27.717Z,20.20
2023-05-21T16:46:54.302Z,20.20
2023-05-21T16:49:20.846Z,20.20
2023-05-21T16:51:47.367Z,20.20
2023-05-21T16:54:13.906Z,20.20
2023-05-21T16:56:40.434Z,20.20
2023-05-21T16:59:06.969Z,20.20
2023-05-21T17:01:33.520Z,20.10
2023-05-21T17:04:00.300Z,20.20
2023-05-21T17:06:27.003Z,20.20
2023-05-21T17:08:53.584Z,20.20
2023-05-21T17:11:25.733Z,20.30
2023-05-21T17:13:52.235Z,20.20
2023-05-21T17:16:18.799Z,20.20
2023-05-21T17:18:45.399Z,20.20
2023-05-21T17:21:11.945Z,20.20
2023-05-21T17:23:38.459Z,20.10
2023-05-21T17:26:04.983Z,20.30
2023-05-21T17:28:31.514Z,20.20
2023-05-21T17:30:58.037Z,20.30
2023-05-21T17:33:24.581Z,20.20
2023-05-21T17:35:51.110Z,20.30
2023-05-21T17:38:17.651Z,20.20
2023-05-21T17:40:44.177Z,20.30
2023-05-21T17:43:10.684Z,20.30
2023-05-21T17:45:37.373Z,20.20
2023-05-21T17:48:04.102Z,20.20
2023-05-21T17:50:30.706Z,20.30
2023-05-21T17:52:57.237Z,20.20
2023-05-21T17:55:23.784Z,20.30
2023-05-21T17:57:55.860Z,20.30
2023-05-21T18:00:22.369Z,20.30
2023-05-21T18:02:48.911Z,20.30
2023-05-21T18:05:15.465Z,20.30
2023-05-21T18:07:42.001Z,20.30
2023-05-21T18:10:08.516Z,20.30
2023-05-21T18:12:35.049Z,20.30
2023-05-21T18:15:01.572Z,20.30
2023-05-21T18:17:28.148Z,20.30
2023-05-21T18:19:55.761Z,20.20
2023-05-21T18:22:22.328Z,20.30
2023-05-21T18:24:48.870Z,20.30
2023-05-21T18:27:19.811Z,20.30
2023-05-21T18:29:46.378Z,20.30
2023-05-21T18:32:12.997Z,20.30
2023-05-21T18:34:39.535Z,20.30
2023-05-21T18:37:06.076Z,20.30
2023-05-21T18:39:32.583Z,20.30
2023-05-21T18:42:12.093Z,20.30
2023-05-21T18:44:39.670Z,20.30
2023-05-21T18:47:06.260Z,20.30
2023-05-21T18:49:32.844Z,20.30
2023-05-21T18:51:59.364Z,20.30
2023-05-21T18:54:25.887Z,20.30
2023-05-21T18:56:52.418Z,20.30
2023-05-21T18:59:18.966Z,20.30
2023-05-21T19:01:46.612Z,20.30
2023-05-21T19:04:13.186Z,20.30
2023-05-21T19:06:39.711Z,20.30
2023-05-21T19:09:06.264Z,20.20
2023-05-21T19:11:32.783Z,20.30
2023-05-21T19:13:59.330Z,20.20
2023-05-21T19:16:25.934Z,20.30
2023-05-21T19:18:52.578Z,20.20
2023-05-21T19:21:19.150Z,20.20
2023-05-21T19:23:53.175Z,20.20
2023-05-21T19:26:20.523Z,20.20
2023-05-21T19:28:47.032Z,20.30
2023-05-21T19:31:13.826Z,20.20
2023-05-21T19:33:40.528Z,20.30
2023-05-21T19:36:07.143Z,20.30
2023-05-21T19:38:33.673Z,20.30
2023-05-21T19:41:00.190Z,20.30
2023-05-21T19:43:26.696Z,20.20
2023-05-21T19:45:53.232Z,20.20
2023-05-21T19:48:19.877Z,20.20
2023-05-21T19:50:46.408Z,20.20
2023-05-21T19:53:12.909Z,20.20
2023-05-21T19:55:39.426Z,20.20
2023-05-21T19:58:05.955Z,20.20
2023-05-21T20:00:32.475Z,20.20
2023-05-21T20:02:59.010Z,20.20
2023-05-21T20:05:25.536Z,20.10
2023-05-21T20:07:52.056Z,20.20
2023-05-21T20:10:18.578Z,20.20
2023-05-21T20:12:45.122Z,20.20
2023-05-21T20:15:11.652Z,20.20
2023-05-21T20:17:38.212Z,20.20
2023-05-21T20:20:04.768Z,20.20
2023-05-21T20:22:31.301Z,20.20
2023-05-21T20:24:57.834Z,20.20
2023-05-21T20:27:24.357Z,20.20
2023-05-21T20:29:50.885Z,20.20
2023-05-21T20:32:17.412Z,20.20
2023-05-21T20:34:58.530Z,20.20
2023-05-21T20:37:29.115Z,20.20
2023-05-21T20:39:55.654Z,20.10
2023-05-21T20:42:22.167Z,20.20
2023-05-21T20:44:48.687Z,20.20
2023-05-21T20:47:15.193Z,20.20
2023-05-21T20:49:41.729Z,20.10
2023-05-21T20:52:08.236Z,20.10
2023-05-21T20:54:37.921Z,20.20
2023-05-21T20:57:04.448Z,20.20
2023-05-21T20:59:30.988Z,20.10
2023-05-21T21:01:57.524Z,20.10
2023-05-21T21:04:24.090Z,20.10
2023-05-21T21:06:50.627Z,20.10
2023-05-21T21:09:17.166Z,20.10
2023-05-21T21:11:43.672Z,20.10
2023-05-21T21:14:10.204Z,20.10
2023-05-21T21:16:36.852Z,20.10
2023-05-21T21:19:03.506Z,20.10
2023-05-21T21:21:30.091Z,20.10
2023-05-21T21:23:56.708Z,20.10
2023-05-21T21:26:23.228Z,20.10
2023-05-21T21:28:49.750Z,20.10
2023-05-21T21:31:16.276Z,20.10
2023-05-21T21:33:43.985Z,20.10
2023-05-21T21:36:10.510Z,20.10
2023-05-21T21:38:37.035Z,20.00
2023-05-21T21:41:03.550Z,20.10
2023-05-21T21:43:30.074Z,20.10
2023-05-21T21:45:56.660Z,20.10
2023-05-21T21:48:23.191Z,20.10
2023-05-21T21:50:49.724Z,20.10
2023-05-21T21:53:16.244Z,20.10
2023-05-21T21:55:42.750Z,20.10
2023-05-21T21:58:09.310Z,20.00
2023-05-21T22:00:35.966Z,20.10
2023-05-21T22:03:08.252Z,20.00
2023-05-21T22:05:34.851Z,20.00
2023-05-21T22:08:01.373Z,20.00
2023-05-21T22:10:27.896Z,20.00
2023-05-21T22:12:54.444Z,20.00
2023-05-21T22:15:20.997Z,20.00
2023-05-21T22:17:47.566Z,20.00
2023-05-21T22:20:14.128Z,20.00
2023-05-21T22:22:40.651Z,20.00
2023-05-21T22:25:07.172Z,20.00
2023-05-21T22:27:33.697Z,20.00
2023-05-21T22:30:00.265Z,20.00
2023-05-21T22:32:26.803Z,20.00
2023-05-21T22:34:53.324Z,20.00
2023-05-21T22:37:19.841Z,20.00
2023-05-21T22:39:50.039Z,19.90
2023-05-21T22:42:20.032Z,20.00
2023-05-21T22:44:46.561Z,20.00
2023-05-21T22:47:13.091Z,20.00
2023-05-21T22:49:39.634Z,20.00
2023-05-21T22:52:06.292Z,20.00
2023-05-21T22:54:32.865Z,20.00
2023-05-21T22:57:02.013Z,20.00
2023-05-21T22:59:28.518Z,20.00
2023-05-21T23:01:55.079Z,20.00
2023-05-21T23:04:32.190Z,20.00
2023-05-21T23:07:06.640Z,20.00
2023-05-21T23:09:33.166Z,20.00
2023-05-21T23:11:59.698Z,20.00
2023-05-21T23:14:26.214Z,20.00
2023-05-21T23:16:52.823Z,20.00
2023-05-21T23:19:19.415Z,20.00
2023-05-21T23:21:45.946Z,19.90
2023-05-21T23:24:12.475Z,19.90
2023-05-21T23:26:38.988Z,19.90
2023-05-21T23:29:05.543Z,19.90
2023-05-21T23:31:32.087Z,19.90
2023-05-21T23:33:58.612Z,19.90
2023-05-21T23:36:25.147Z,19.90
2023-05-21T23:38:56.066Z,19.90
2023-05-21T23:41:22.612Z,19.90
2023-05-21T23:43:49.156Z,19.90
2023-05-21T23:46:15.787Z,19.90
2023-05-21T23:48:42.402Z,19.90
2023-05-21T23:51:08.929Z,19.90
2023-05-21T23:53:35.457Z,19.90
2023-05-21T23:56:01.994Z,19.90
2023-05-21T23:58:28.548Z,19.90
